Batavia, Argentina
Current Conditions -  °F | °C
As of 6:00 PM on Friday 28 Nov 2014 (Local Time) from SAOC Reporting Station
Broken Clouds Broken Clouds  
Wind Chill: 86°   Ceiling: 20000
Heat Index: 86°   Visibility: 6mi
Dew Point: 52°   Wind: 28mph
Humidity: 31%   Direction: 20°NNE
Pressure: 29.68"   Gusts: 40mph
Location:  34.78°S, 65.68°W
Report Text: SAOC 282100Z 02024G35KT 9999 FEW025 BKN200 30/11 Q1005
Loading
Personal Weather Stations






























Interactive Weather Map New forecast layout! Learn more

10-Day Weather Forecast

Advertisements
Track Severe Weather on mobile